Time;durP1;ratioP1;P1;durP2;ratioP2;P2;SDS_P1;SDS_P2;PMS_P1;PMS_P2;Temp;Humidity;BMP_temperature;BMP_pressure;BME280_temperature;BME280_humidity;BME280_pressure;Samples;Min_cycle;Max_cycle;Signal;HPM_P1;HPM_P2
2022/03/27 00:01:20;;;;;;;28.10;11.40;;;5.20;77.20;;;;;;5037990;28;20044;-65
2022/03/27 00:03:46;;;;;;;23.17;9.93;;;5.10;77.40;;;;;;5038104;28;20365;-66
2022/03/27 00:06:11;;;;;;;29.45;11.15;;;5.00;77.60;;;;;;5057731;28;20028;-66
2022/03/27 00:08:37;;;;;;;28.67;11.15;;;5.00;77.80;;;;;;5054060;28;20033;-65
2022/03/27 00:13:50;;;;;;;26.75;11.65;;;4.90;78.30;;;;;;5035751;28;20035;-66
2022/03/27 00:16:16;;;;;;;29.08;12.43;;;4.70;79.10;;;;;;5037169;28;20025;-66
2022/03/27 00:18:42;;;;;;;24.23;10.48;;;4.60;79.30;;;;;;5037142;28;20372;-65
2022/03/27 00:21:11;;;;;;;22.15;10.98;;;4.40;79.50;;;;;;5037121;28;20386;-66
2022/03/27 00:23:37;;;;;;;22.15;10.02;;;4.40;80.10;;;;;;5037029;28;20064;-66
2022/03/27 00:26:03;;;;;;;26.08;10.63;;;4.40;79.90;;;;;;5036655;28;20104;-66
2022/03/27 00:28:32;;;;;;;27.05;10.98;;;4.40;79.60;;;;;;5034089;28;20105;-65
2022/03/27 00:31:02;;;;;;;25.77;11.75;;;4.40;79.20;;;;;;5036315;28;20025;-65
2022/03/27 00:33:28;;;;;;;25.70;12.10;;;4.40;80.20;;;;;;5036838;28;20029;-66
2022/03/27 00:35:55;;;;;;;28.98;12.25;;;4.40;79.90;;;;;;5035603;28;20105;-66
2022/03/27 00:38:22;;;;;;;21.35;10.40;;;4.30;80.70;;;;;;5035569;28;20033;-65
2022/03/27 00:40:50;;;;;;;27.52;11.18;;;4.20;80.50;;;;;;5035417;28;20037;-66
2022/03/27 00:43:16;;;;;;;36.35;12.25;;;4.20;80.70;;;;;;5034183;28;20030;-66
2022/03/27 00:45:42;;;;;;;30.35;10.57;;;4.10;81.40;;;;;;5035751;28;20426;-66
2022/03/27 00:48:07;;;;;;;27.40;11.93;;;4.10;81.60;;;;;;5036655;28;20041;-67
2022/03/27 00:50:33;;;;;;;25.67;11.10;;;4.10;81.50;;;;;;5035583;28;20426;-66
2022/03/27 00:52:59;;;;;;;28.73;12.02;;;4.10;80.90;;;;;;5032469;28;20026;-66
2022/03/27 00:55:26;;;;;;;31.35;11.73;;;4.10;81.00;;;;;;5034439;28;20021;-67
2022/03/27 00:57:55;;;;;;;28.42;11.07;;;4.10;81.60;;;;;;5034699;28;20429;-66
2022/03/27 01:00:43;;;;;;;27.80;10.98;;;4.00;81.60;;;;;;5035738;28;20099;-66
2022/03/27 01:03:12;;;;;;;23.88;11.20;;;3.90;81.80;;;;;;5024615;28;20030;-66
2022/03/27 01:05:39;;;;;;;30.20;12.15;;;3.80;82.40;;;;;;5035920;28;20108;-66
2022/03/27 01:08:08;;;;;;;32.80;12.93;;;3.60;83.00;;;;;;5036321;28;20420;-66
2022/03/27 01:10:37;;;;;;;21.58;11.15;;;3.50;83.80;;;;;;5035073;28;20452;-66
2022/03/27 01:13:18;;;;;;;25.85;11.63;;;3.50;83.80;;;;;;5034216;28;20097;-66
2022/03/27 01:15:53;;;;;;;30.48;12.85;;;3.50;83.80;;;;;;5035464;28;20059;-66
2022/03/27 01:18:20;;;;;;;31.58;12.43;;;3.50;84.00;;;;;;5035153;28;20020;-66
2022/03/27 01:20:46;;;;;;;27.25;11.70;;;3.60;83.40;;;;;;5035504;28;20114;-65
2022/03/27 01:23:14;;;;;;;31.15;11.95;;;3.50;83.80;;;;;;5039317;28;20024;-66
2022/03/27 01:25:44;;;;;;;29.60;11.98;;;3.50;83.80;;;;;;5031724;28;20358;-65
2022/03/27 01:28:12;;;;;;;29.05;12.23;;;3.50;83.30;;;;;;5032766;28;20029;-66
2022/03/27 01:30:41;;;;;;;27.98;12.27;;;3.60;83.40;;;;;;5035334;28;20040;-67
2022/03/27 01:33:09;;;;;;;31.92;12.73;;;3.60;82.70;;;;;;5033770;28;20441;-67
2022/03/27 01:35:36;;;;;;;26.40;12.00;;;3.70;82.70;;;;;;5036378;28;20032;-67
2022/03/27 01:38:02;;;;;;;23.95;12.98;;;3.70;82.90;;;;;;5033523;28;20088;-66
2022/03/27 01:40:31;;;;;;;28.73;12.70;;;3.60;83.00;;;;;;5033065;28;20034;-67
2022/03/27 01:42:56;;;;;;;27.52;11.65;;;3.70;82.80;;;;;;5030215;28;20036;-66
2022/03/27 01:45:23;;;;;;;27.77;12.15;;;3.70;83.00;;;;;;5035711;28;20038;-66
2022/03/27 01:47:49;;;;;;;28.67;11.57;;;3.70;82.60;;;;;;5033433;28;20026;-66
2022/03/27 01:50:14;;;;;;;22.25;11.38;;;3.70;82.20;;;;;;5031349;28;20104;-66
2022/03/27 01:52:40;;;;;;;23.85;12.40;;;3.80;82.70;;;;;;5030492;28;20013;-66
2022/03/27 01:55:08;;;;;;;27.73;12.15;;;3.80;82.70;;;;;;5026046;28;20407;-66
2022/03/27 01:57:37;;;;;;;27.90;12.23;;;3.70;82.90;;;;;;5016195;28;20033;-66
2022/03/27 02:00:04;;;;;;;26.27;12.55;;;3.70;82.40;;;;;;5025205;28;20057;-66
2022/03/27 02:02:30;;;;;;;26.05;12.13;;;3.60;83.10;;;;;;5023794;28;20237;-67
2022/03/27 02:04:55;;;;;;;27.58;12.55;;;3.50;83.40;;;;;;5027285;28;20127;-66
2022/03/27 02:07:24;;;;;;;36.00;12.27;;;3.60;82.70;;;;;;5021949;28;20414;-66
2022/03/27 02:09:50;;;;;;;33.08;12.27;;;3.60;82.70;;;;;;5028361;28;20156;-66
2022/03/27 02:12:16;;;;;;;30.35;12.57;;;3.60;83.10;;;;;;5028125;28;20108;-66
2022/03/27 02:14:41;;;;;;;28.30;11.80;;;3.60;83.00;;;;;;5027541;28;20021;-66
2022/03/27 02:17:10;;;;;;;29.40;12.60;;;3.60;83.30;;;;;;5021621;28;20809;-66
2022/03/27 02:19:36;;;;;;;31.48;11.45;;;3.60;83.00;;;;;;5019034;28;20029;-66
2022/03/27 02:22:04;;;;;;;30.25;11.73;;;3.60;82.90;;;;;;5017354;28;20026;-66
2022/03/27 02:24:30;;;;;;;31.75;12.40;;;3.60;83.00;;;;;;5019446;28;20026;-66
2022/03/27 02:26:56;;;;;;;23.52;11.80;;;3.40;83.90;;;;;;5024460;28;20040;-66
2022/03/27 02:29:22;;;;;;;33.92;13.10;;;3.40;84.20;;;;;;5026403;28;20032;-65
2022/03/27 02:31:47;;;;;;;24.10;11.25;;;3.40;84.50;;;;;;5031669;28;20033;-66
2022/03/27 02:34:14;;;;;;;32.20;12.00;;;3.40;84.80;;;;;;5037549;28;20017;-66
2022/03/27 02:36:40;;;;;;;26.63;11.23;;;3.50;84.90;;;;;;5027996;28;20359;-66
2022/03/27 02:39:07;;;;;;;32.78;13.13;;;3.40;85.10;;;;;;5026467;28;20377;-65
2022/03/27 02:41:32;;;;;;;25.33;12.27;;;3.40;85.60;;;;;;5029717;28;20071;-66
2022/03/27 02:43:58;;;;;;;27.25;12.02;;;3.30;85.80;;;;;;5032779;28;20025;-66
2022/03/27 02:46:24;;;;;;;24.25;11.90;;;3.20;86.20;;;;;;5029953;28;20559;-65
2022/03/27 02:48:49;;;;;;;28.70;12.65;;;3.10;86.50;;;;;;5027192;28;20033;-66
2022/03/27 02:51:16;;;;;;;33.15;14.02;;;3.00;87.00;;;;;;5022792;28;20052;-66
2022/03/27 02:53:42;;;;;;;28.10;12.55;;;2.80;87.40;;;;;;5031777;28;20026;-65
2022/03/27 02:56:08;;;;;;;28.80;12.88;;;2.70;88.10;;;;;;5023877;28;20038;-65
2022/03/27 02:58:35;;;;;;;31.90;13.13;;;2.60;88.60;;;;;;5034213;28;20303;-65
2022/03/27 03:01:01;;;;;;;24.60;13.43;;;2.70;88.90;;;;;;5021729;28;20014;-66
2022/03/27 03:03:27;;;;;;;28.83;13.32;;;2.70;89.00;;;;;;5029105;28;20026;-66
2022/03/27 03:05:54;;;;;;;33.67;13.35;;;2.80;89.20;;;;;;5029396;28;20026;-66
2022/03/27 03:08:20;;;;;;;32.38;13.45;;;2.80;89.10;;;;;;5028397;28;20131;-66
2022/03/27 03:10:46;;;;;;;30.08;12.82;;;3.00;88.90;;;;;;5023129;28;20077;-66
2022/03/27 03:13:12;;;;;;;30.83;12.57;;;3.20;88.30;;;;;;5020368;28;20033;-65
2022/03/27 03:15:39;;;;;;;27.38;12.52;;;3.20;88.10;;;;;;5028378;28;20033;-66
2022/03/27 03:18:06;;;;;;;33.50;15.23;;;3.20;88.10;;;;;;5028661;28;20060;-66
2022/03/27 03:20:32;;;;;;;32.78;13.75;;;3.20;88.30;;;;;;5024294;28;20021;-66
2022/03/27 03:22:58;;;;;;;28.90;13.38;;;3.20;88.40;;;;;;5029789;28;20025;-66
2022/03/27 03:25:24;;;;;;;28.50;12.70;;;3.20;88.50;;;;;;5024253;28;20029;-66
2022/03/27 03:27:50;;;;;;;29.63;13.52;;;3.30;88.50;;;;;;5033575;28;20043;-66
2022/03/27 03:30:19;;;;;;;31.08;13.75;;;3.20;88.50;;;;;;5030207;28;20025;-66
2022/03/27 03:32:44;;;;;;;34.53;13.30;;;3.20;88.70;;;;;;5032134;28;20076;-66
2022/03/27 03:35:10;;;;;;;25.58;13.00;;;3.10;88.80;;;;;;5028622;28;20034;-65
2022/03/27 03:37:37;;;;;;;28.75;13.23;;;3.10;89.10;;;;;;5027817;28;20048;-66
2022/03/27 03:40:06;;;;;;;29.90;12.15;;;3.20;89.00;;;;;;5033997;28;20049;-66
2022/03/27 03:42:33;;;;;;;30.52;14.15;;;3.10;88.80;;;;;;5032511;28;20389;-66
2022/03/27 03:44:59;;;;;;;27.23;14.13;;;3.10;89.50;;;;;;5024591;28;20037;-65
2022/03/27 03:47:25;;;;;;;33.53;13.57;;;3.10;89.40;;;;;;5026076;28;20021;-65
2022/03/27 03:49:51;;;;;;;28.35;14.15;;;3.10;89.60;;;;;;5035348;28;20075;-66
2022/03/27 03:52:20;;;;;;;34.08;13.30;;;3.10;89.90;;;;;;5031437;28;20034;-66
2022/03/27 03:54:45;;;;;;;30.38;14.32;;;3.00;89.80;;;;;;5018504;28;20022;-65
2022/03/27 03:57:11;;;;;;;28.23;13.95;;;3.00;90.10;;;;;;5025862;28;20032;-66
2022/03/27 03:59:42;;;;;;;29.27;13.73;;;2.90;90.50;;;;;;5030109;28;20032;-67
2022/03/27 04:02:09;;;;;;;26.67;13.75;;;3.00;90.50;;;;;;5030604;28;20029;-66
2022/03/27 04:04:36;;;;;;;29.17;14.02;;;2.90;90.40;;;;;;5036126;28;20378;-66
2022/03/27 04:07:04;;;;;;;31.13;14.60;;;2.80;90.70;;;;;;5029635;28;20422;-66
2022/03/27 04:09:29;;;;;;;29.27;13.68;;;2.90;90.90;;;;;;5030604;28;20100;-66
2022/03/27 04:11:59;;;;;;;30.70;14.70;;;2.90;90.80;;;;;;5022125;28;20112;-65
2022/03/27 04:14:24;;;;;;;26.42;13.38;;;2.80;91.10;;;;;;5034153;28;20147;-66
2022/03/27 04:16:53;;;;;;;31.48;13.60;;;2.80;91.40;;;;;;5026604;28;20108;-65
2022/03/27 04:19:19;;;;;;;28.70;14.10;;;2.80;91.30;;;;;;5031996;28;20057;-65
2022/03/27 04:21:44;;;;;;;29.83;14.57;;;2.70;91.40;;;;;;5019315;28;20069;-65
2022/03/27 04:24:13;;;;;;;36.97;15.02;;;2.60;91.80;;;;;;5023030;28;20028;-67
2022/03/27 04:26:40;;;;;;;32.75;14.43;;;2.50;92.40;;;;;;5024495;28;20033;-67
2022/03/27 04:29:12;;;;;;;27.38;14.52;;;2.50;92.50;;;;;;5026634;28;20153;-66
2022/03/27 04:31:39;;;;;;;31.10;13.63;;;2.60;92.50;;;;;;5021823;28;20116;-66
2022/03/27 04:34:05;;;;;;;35.42;15.40;;;2.70;92.10;;;;;;5031204;28;20103;-66
2022/03/27 04:36:31;;;;;;;40.38;14.38;;;2.60;92.10;;;;;;5029442;28;20427;-66
2022/03/27 04:38:59;;;;;;;29.55;14.23;;;2.60;92.10;;;;;;5026546;28;20048;-65
2022/03/27 04:41:25;;;;;;;32.33;16.02;;;2.80;92.10;;;;;;5032277;28;20025;-66
2022/03/27 04:43:50;;;;;;;26.23;14.13;;;2.90;91.70;;;;;;5031037;28;20037;-66
2022/03/27 04:46:17;;;;;;;35.90;14.90;;;2.80;91.50;;;;;;5021016;28;20348;-65
2022/03/27 04:48:44;;;;;;;30.52;14.90;;;2.60;91.80;;;;;;5028337;28;20444;-66
2022/03/27 04:51:10;;;;;;;34.17;15.13;;;2.50;92.30;;;;;;5023695;28;20312;-66
2022/03/27 04:53:36;;;;;;;28.10;14.52;;;2.50;92.50;;;;;;5023770;28;20430;-65
2022/03/27 04:56:01;;;;;;;32.80;15.55;;;2.50;92.40;;;;;;5021650;28;20025;-66
2022/03/27 04:58:27;;;;;;;31.30;14.90;;;2.60;92.40;;;;;;5024305;28;20065;-66
2022/03/27 05:00:52;;;;;;;33.08;14.68;;;2.60;92.40;;;;;;5029645;28;20037;-65
2022/03/27 05:03:18;;;;;;;30.42;14.23;;;2.60;92.20;;;;;;5026933;28;20028;-65
2022/03/27 05:05:44;;;;;;;28.27;14.65;;;2.60;92.20;;;;;;5021107;28;20109;-65
2022/03/27 05:08:09;;;;;;;30.95;14.90;;;2.50;92.30;;;;;;5023956;28;20034;-66
2022/03/27 05:10:36;;;;;;;35.75;15.27;;;2.40;92.40;;;;;;5023506;28;20438;-66
2022/03/27 05:13:01;;;;;;;26.27;14.98;;;2.30;92.60;;;;;;5020202;28;20022;-65
2022/03/27 05:15:30;;;;;;;32.38;16.15;;;2.10;92.90;;;;;;5030035;28;20438;-65
2022/03/27 05:17:58;;;;;;;27.88;13.80;;;2.00;93.50;;;;;;5024619;28;20230;-65
2022/03/27 05:20:27;;;;;;;31.15;14.50;;;2.10;94.10;;;;;;5024381;28;20533;-66
2022/03/27 05:22:53;;;;;;;29.00;15.30;;;2.10;93.90;;;;;;5025428;28;20032;-66
2022/03/27 05:25:20;;;;;;;31.80;14.77;;;2.20;93.90;;;;;;5030649;28;20422;-66
2022/03/27 05:27:55;;;;;;;30.52;14.80;;;2.30;93.80;;;;;;5023252;28;20041;-66
2022/03/27 05:30:22;;;;;;;30.38;14.85;;;2.40;93.50;;;;;;5021734;28;20037;-66
2022/03/27 05:32:49;;;;;;;30.65;14.50;;;2.50;93.20;;;;;;5022595;28;20092;-67
2022/03/27 05:35:15;;;;;;;35.10;14.10;;;2.60;93.10;;;;;;5026397;28;20048;-66
2022/03/27 05:37:43;;;;;;;31.00;15.38;;;2.70;92.60;;;;;;5022074;28;20054;-66
2022/03/27 05:40:11;;;;;;;36.08;14.50;;;2.70;92.40;;;;;;5028910;28;20093;-65
2022/03/27 05:42:41;;;;;;;36.05;16.58;;;2.90;92.00;;;;;;5025696;28;20076;-66
2022/03/27 05:45:08;;;;;;;32.42;13.98;;;3.00;91.60;;;;;;5016825;28;20037;-65
2022/03/27 05:47:37;;;;;;;31.33;14.75;;;3.10;91.10;;;;;;5030649;28;20320;-64
2022/03/27 05:50:04;;;;;;;30.20;14.10;;;3.20;90.60;;;;;;5035196;28;20044;-66
2022/03/27 05:52:30;;;;;;;28.80;14.57;;;3.20;90.40;;;;;;5037771;28;20410;-66
2022/03/27 05:54:56;;;;;;;27.90;13.18;;;3.30;90.50;;;;;;5019896;28;20025;-66
2022/03/27 05:57:22;;;;;;;26.90;12.85;;;3.40;89.70;;;;;;5024673;28;20087;-67
2022/03/27 05:59:48;;;;;;;26.40;13.75;;;3.50;89.40;;;;;;5030584;28;20414;-66
2022/03/27 06:02:14;;;;;;;30.55;14.68;;;3.60;89.30;;;;;;5028949;28;20163;-66
2022/03/27 06:04:41;;;;;;;30.15;14.73;;;3.70;88.90;;;;;;5032033;28;20030;-66
2022/03/27 06:07:07;;;;;;;27.63;13.27;;;3.70;88.70;;;;;;5032506;28;20052;-66
2022/03/27 06:09:33;;;;;;;32.15;15.13;;;3.80;88.60;;;;;;5023345;28;20108;-66
2022/03/27 06:12:02;;;;;;;28.00;13.23;;;3.90;88.80;;;;;;5024956;28;20036;-66
2022/03/27 06:14:28;;;;;;;33.55;14.57;;;4.10;87.90;;;;;;5027681;28;20460;-66
2022/03/27 06:16:54;;;;;;;30.77;14.23;;;4.30;87.50;;;;;;5024645;28;20040;-66
2022/03/27 06:19:19;;;;;;;26.45;14.07;;;4.40;87.60;;;;;;5032767;28;20053;-66
2022/03/27 06:21:45;;;;;;;27.38;13.50;;;4.50;87.20;;;;;;5028053;28;20026;-66
2022/03/27 06:24:12;;;;;;;30.85;13.45;;;4.50;87.00;;;;;;5021860;28;20296;-66
2022/03/27 06:26:38;;;;;;;25.23;12.82;;;4.70;86.60;;;;;;5019702;28;20067;-66
2022/03/27 06:29:04;;;;;;;30.42;13.88;;;4.90;86.10;;;;;;5021831;28;20033;-66
2022/03/27 06:31:30;;;;;;;24.60;13.88;;;5.00;86.20;;;;;;5024013;28;20032;-66
2022/03/27 06:33:56;;;;;;;26.83;13.77;;;5.10;85.80;;;;;;5017240;28;20038;-66
2022/03/27 06:36:22;;;;;;;28.30;14.70;;;5.00;86.00;;;;;;5020340;28;20326;-65
2022/03/27 06:38:47;;;;;;;32.42;13.80;;;5.10;86.10;;;;;;5017967;28;20075;-65
2022/03/27 06:41:16;;;;;;;30.27;14.23;;;5.20;85.50;;;;;;5025971;28;20025;-65
2022/03/27 06:43:41;;;;;;;32.03;14.57;;;5.40;85.70;;;;;;5017537;28;20312;-65
2022/03/27 06:46:07;;;;;;;29.80;14.43;;;5.50;84.30;;;;;;5018962;28;20032;-66
2022/03/27 06:48:38;;;;;;;26.08;14.43;;;5.50;83.60;;;;;;5021430;28;20481;-65
2022/03/27 06:51:07;;;;;;;29.48;15.27;;;5.60;83.30;;;;;;5028527;28;20116;-65
2022/03/27 06:53:35;;;;;;;29.05;15.27;;;5.90;83.00;;;;;;5026202;28;20437;-65
2022/03/27 06:56:00;;;;;;;34.35;15.60;;;6.10;82.30;;;;;;5023444;28;20108;-66
2022/03/27 06:58:26;;;;;;;37.80;17.77;;;6.30;81.00;;;;;;5023656;28;20101;-65
2022/03/27 07:03:36;;;;;;;35.20;16.13;;;6.60;79.50;;;;;;5028778;28;20449;-65
2022/03/27 07:06:02;;;;;;;39.50;17.23;;;6.70;78.60;;;;;;5025626;28;20061;-66
2022/03/27 07:08:27;;;;;;;40.25;16.40;;;6.90;78.00;;;;;;5017671;28;20041;-66
2022/03/27 07:10:53;;;;;;;33.20;16.38;;;7.00;77.20;;;;;;5023193;28;20065;-65
2022/03/27 07:13:19;;;;;;;40.03;18.85;;;7.10;77.00;;;;;;5022373;28;20032;-66
2022/03/27 07:15:46;;;;;;;37.50;17.80;;;7.10;76.20;;;;;;5028713;28;20072;-65
2022/03/27 07:18:13;;;;;;;31.70;16.27;;;7.20;75.80;;;;;;5019292;28;20076;-64
2022/03/27 07:20:45;;;;;;;39.15;18.63;;;7.30;75.60;;;;;;5030909;28;20049;-65
2022/03/27 07:23:13;;;;;;;39.80;18.00;;;7.30;76.00;;;;;;5020815;28;20053;-65
2022/03/27 07:25:44;;;;;;;39.60;20.67;;;7.40;75.20;;;;;;5032163;28;20128;-66
2022/03/27 07:28:11;;;;;;;35.47;18.67;;;7.50;75.10;;;;;;5027113;28;20335;-65
2022/03/27 07:30:37;;;;;;;32.38;16.77;;;7.60;74.50;;;;;;5024927;28;20030;-65
2022/03/27 07:33:06;;;;;;;34.05;17.38;;;7.80;74.50;;;;;;5030630;28;20057;-65
2022/03/27 07:35:31;;;;;;;32.65;16.33;;;8.00;74.20;;;;;;5022608;28;20048;-65
2022/03/27 07:37:58;;;;;;;34.13;17.15;;;8.10;73.80;;;;;;5020358;28;20049;-65
2022/03/27 07:40:24;;;;;;;32.88;18.15;;;8.20;73.30;;;;;;5026833;28;20029;-65
2022/03/27 07:42:50;;;;;;;43.10;21.30;;;8.30;73.20;;;;;;5034342;28;20025;-66
2022/03/27 07:45:19;;;;;;;39.63;18.98;;;8.40;72.80;;;;;;5027844;28;20034;-66
2022/03/27 07:47:45;;;;;;;36.80;17.45;;;8.60;72.80;;;;;;5022921;28;20026;-66
2022/03/27 07:50:11;;;;;;;35.20;16.55;;;8.70;72.60;;;;;;5025103;28;20469;-65
2022/03/27 07:52:38;;;;;;;41.25;18.95;;;8.90;72.10;;;;;;5031645;28;20365;-65
2022/03/27 07:55:05;;;;;;;43.70;19.70;;;9.00;72.10;;;;;;5029702;28;20055;-66
2022/03/27 07:57:31;;;;;;;38.85;18.88;;;9.20;71.80;;;;;;5030938;28;20061;-66
2022/03/27 07:59:57;;;;;;;38.13;18.40;;;9.30;71.50;;;;;;5019926;28;20037;-66
2022/03/27 08:02:23;;;;;;;35.95;16.65;;;9.40;71.80;;;;;;5030009;28;20030;-66
2022/03/27 08:04:49;;;;;;;29.60;15.38;;;9.50;71.10;;;;;;5025923;28;20040;-67
2022/03/27 08:07:15;;;;;;;37.42;18.75;;;9.50;71.80;;;;;;5021487;28;20025;-67
2022/03/27 08:09:42;;;;;;;37.55;17.90;;;9.70;71.00;;;;;;5025997;28;20041;-65
2022/03/27 08:12:11;;;;;;;38.22;20.27;;;9.80;70.80;;;;;;5029807;28;20033;-65
2022/03/27 08:14:39;;;;;;;38.15;20.15;;;9.90;71.20;;;;;;5022123;28;20084;-65
2022/03/27 08:17:06;;;;;;;39.30;20.13;;;10.00;71.10;;;;;;5022786;28;20052;-65
2022/03/27 08:19:32;;;;;;;40.90;19.25;;;10.30;71.00;;;;;;5024048;28;20474;-67
2022/03/27 08:21:59;;;;;;;38.30;18.15;;;10.90;69.90;;;;;;5030606;28;20201;-65
2022/03/27 08:24:24;;;;;;;31.83;17.23;;;11.60;68.10;;;;;;5031601;28;20017;-67
2022/03/27 08:26:57;;;;;;;28.73;14.45;;;12.50;67.50;;;;;;5037208;28;20468;-68
2022/03/27 08:29:30;;;;;;;29.55;15.48;;;13.70;64.20;;;;;;5029859;28;20060;-67
2022/03/27 08:32:00;;;;;;;31.30;15.80;;;15.00;61.90;;;;;;5022487;28;20326;-67
2022/03/27 08:34:28;;;;;;;26.63;14.85;;;16.00;58.90;;;;;;5045016;28;20035;-66
2022/03/27 08:36:55;;;;;;;25.88;15.07;;;16.40;58.20;;;;;;5030477;28;20033;-68
2022/03/27 08:39:22;;;;;;;30.05;16.02;;;17.00;57.20;;;;;;5024369;28;20024;-66
2022/03/27 08:41:49;;;;;;;29.70;15.35;;;17.00;56.70;;;;;;5036097;28;20025;-66
2022/03/27 08:44:21;;;;;;;29.23;15.07;;;17.30;56.50;;;;;;5027729;28;20030;-66
2022/03/27 08:46:48;;;;;;;25.98;14.68;;;17.80;54.20;;;;;;5023933;28;20029;-66
2022/03/27 08:49:40;;;;;;;25.95;15.55;;;17.80;55.70;;;;;;5027006;28;20104;-65
2022/03/27 08:52:21;;;;;;;22.10;13.85;;;18.20;53.90;;;;;;5020902;28;20042;-66
2022/03/27 08:55:05;;;;;;;28.95;14.98;;;19.30;53.20;;;;;;5025384;28;20038;-66
2022/03/27 08:57:50;;;;;;;;;;;20.30;49.80;;;;;;5027403;28;20136;-65
2022/03/27 09:00:18;;;;;;;;;;;18.30;52.00;;;;;;5026210;28;20022;-66
2022/03/27 09:02:45;;;;;;;24.27;14.20;;;18.80;50.80;;;;;;5029416;28;19910;-65
2022/03/27 09:05:11;;;;;;;26.75;15.30;;;18.80;52.20;;;;;;5017402;28;20065;-65
2022/03/27 09:07:37;;;;;;;26.48;14.02;;;19.10;52.00;;;;;;5017757;28;20049;-65
2022/03/27 09:10:11;;;;;;;22.13;13.10;;;19.30;50.80;;;;;;5021947;28;20087;-65
2022/03/27 09:12:46;;;;;;;32.05;15.65;;;20.30;50.10;;;;;;5026919;28;20465;-65
2022/03/27 09:15:17;;;;;;;29.38;15.38;;;19.90;51.50;;;;;;5017713;28;20117;-66
2022/03/27 09:18:04;;;;;;;26.17;13.73;;;18.90;51.60;;;;;;5029369;28;20312;-65
2022/03/27 09:20:36;;;;;;;28.73;13.18;;;19.60;50.60;;;;;;5025854;28;20029;-64
2022/03/27 09:23:21;;;;;;;25.95;13.88;;;20.60;49.10;;;;;;5031942;28;20112;-66
2022/03/27 09:25:51;;;;;;;36.65;14.85;;;21.20;48.20;;;;;;5018675;28;20022;-66
2022/03/27 09:28:28;;;;;;;28.05;14.07;;;20.90;48.40;;;;;;5023794;28;20045;-66
2022/03/27 09:30:55;;;;;;;26.17;14.40;;;20.40;49.70;;;;;;5021154;28;20021;-65
2022/03/27 09:33:34;;;;;;;28.75;14.60;;;19.70;49.80;;;;;;5022567;28;20021;-66
2022/03/27 09:36:23;;;;;;;27.13;15.13;;;19.20;50.60;;;;;;5018180;28;20025;-66
2022/03/27 09:39:16;;;;;;;29.38;14.20;;;19.90;51.90;;;;;;5026237;28;20023;-65
2022/03/27 09:41:46;;;;;;;28.38;14.93;;;19.40;51.30;;;;;;5024617;28;20441;-65
2022/03/27 09:44:21;;;;;;;24.98;14.77;;;19.20;51.80;;;;;;5022106;28;20073;-66
2022/03/27 09:46:58;;;;;;;31.17;15.13;;;19.30;51.50;;;;;;5032334;28;20030;-66
2022/03/27 09:49:37;;;;;;;26.73;15.05;;;19.60;50.70;;;;;;5018857;28;20037;-65
2022/03/27 09:52:18;;;;;;;33.05;17.02;;;19.90;50.90;;;;;;5026812;28;20025;-65
2022/03/27 09:54:53;;;;;;;30.70;15.57;;;19.90;51.20;;;;;;5033587;28;20018;-65
2022/03/27 09:57:38;;;;;;;26.65;15.38;;;20.10;50.60;;;;;;5019904;28;20021;-65
2022/03/27 10:00:19;;;;;;;27.38;15.75;;;20.50;51.10;;;;;;5019627;28;20117;-66
2022/03/27 10:02:51;;;;;;;27.88;16.65;;;20.20;50.20;;;;;;5025202;28;20032;-66
2022/03/27 10:05:21;;;;;;;30.45;15.90;;;20.00;50.80;;;;;;5034154;28;20513;-65
2022/03/27 10:07:52;;;;;;;31.15;16.52;;;20.10;50.50;;;;;;5022306;28;20033;-65
2022/03/27 10:10:26;;;;;;;29.85;16.67;;;20.20;51.00;;;;;;5027280;28;20052;-66
2022/03/27 10:12:54;;;;;;;28.58;16.50;;;20.00;51.30;;;;;;5039170;28;20024;-63
2022/03/27 10:15:22;;;;;;;28.58;15.27;;;19.90;50.70;;;;;;5043979;28;20033;-64
2022/03/27 10:18:05;;;;;;;30.30;16.58;;;20.10;50.50;;;;;;5033822;28;20099;-65
2022/03/27 10:20:35;;;;;;;24.52;15.75;;;20.30;51.10;;;;;;5021876;28;20100;-65
2022/03/27 10:23:05;;;;;;;25.60;14.57;;;20.40;50.90;;;;;;5026831;28;20037;-65
2022/03/27 10:25:45;;;;;;;29.52;16.23;;;20.50;50.40;;;;;;5027418;28;20159;-65
2022/03/27 10:28:11;;;;;;;30.02;16.08;;;21.10;49.10;;;;;;5024320;28;20373;-64
2022/03/27 10:30:41;;;;;;;29.38;16.40;;;21.50;48.30;;;;;;5023874;28;20025;-65
2022/03/27 10:33:09;;;;;;;34.35;17.08;;;21.30;48.00;;;;;;5030150;28;20033;-65
2022/03/27 10:35:57;;;;;;;25.98;15.75;;;20.90;48.20;;;;;;5033429;28;20096;-65
2022/03/27 10:39:02;;;;;;;32.42;16.23;;;20.60;49.40;;;;;;5017803;28;20076;-63
2022/03/27 10:41:34;;;;;;;;;;;21.00;48.40;;;;;;5026609;28;20095;-63
2022/03/27 10:44:26;;;;;;;29.75;16.90;;;21.80;47.70;;;;;;5018581;28;19917;-65
2022/03/27 10:47:13;;;;;;;30.80;16.65;;;21.90;46.90;;;;;;5029404;28;20353;-65
2022/03/27 10:49:41;;;;;;;28.27;15.93;;;21.70;46.90;;;;;;5021039;28;20080;-65
2022/03/27 10:52:08;;;;;;;29.17;16.70;;;21.60;47.80;;;;;;5032457;28;20038;-65
2022/03/27 10:55:01;;;;;;;27.10;16.13;;;21.50;47.70;;;;;;5036684;28;20026;-65
2022/03/27 10:57:35;;;;;;;27.23;15.32;;;20.90;48.60;;;;;;5025604;28;20026;-65
2022/03/27 11:00:01;;;;;;;;;;;21.50;46.70;;;;;;5029414;28;20026;-66
2022/03/27 11:02:45;;;;;;;29.85;16.25;;;21.70;48.30;;;;;;5022590;28;19916;-66
2022/03/27 11:05:32;;;;;;;27.48;15.45;;;21.80;48.40;;;;;;5035304;28;20040;-65
2022/03/27 11:08:16;;;;;;;28.40;15.95;;;22.50;46.70;;;;;;5037487;28;20044;-65
2022/03/27 11:10:50;;;;;;;27.00;15.35;;;22.60;47.00;;;;;;5030070;28;20072;-65
2022/03/27 11:13:33;;;;;;;24.27;14.20;;;22.80;45.20;;;;;;5026399;28;20030;-65
2022/03/27 11:16:02;;;;;;;25.33;14.48;;;23.10;46.30;;;;;;5032108;28;20021;-65
2022/03/27 11:18:49;;;;;;;28.00;15.90;;;24.00;43.60;;;;;;5028690;28;20051;-65
2022/03/27 11:21:38;;;;;;;22.80;13.90;;;23.80;42.70;;;;;;5030381;28;20115;-65
2022/03/27 11:24:05;;;;;;;25.48;14.07;;;24.00;42.60;;;;;;5033147;28;20038;-64
2022/03/27 11:26:33;;;;;;;26.67;15.45;;;24.20;42.50;;;;;;5032659;28;20036;-65
2022/03/27 11:29:10;;;;;;;25.58;14.73;;;24.10;43.10;;;;;;5033904;28;20047;-65
2022/03/27 11:31:38;;;;;;;30.17;15.05;;;23.90;42.40;;;;;;5033818;28;20571;-66
2022/03/27 11:34:17;;;;;;;28.48;14.65;;;23.90;42.70;;;;;;5043824;28;20021;-65
2022/03/27 11:36:48;;;;;;;23.98;13.80;;;24.00;41.50;;;;;;5047172;28;20021;-66
2022/03/27 11:39:28;;;;;;;25.60;14.70;;;24.30;43.00;;;;;;5027869;28;20315;-66
2022/03/27 11:42:15;;;;;;;28.00;16.08;;;24.30;44.10;;;;;;5043550;28;20028;-65
2022/03/27 11:47:40;;;;;;;26.90;15.60;;;23.40;44.60;;;;;;5035333;28;20049;-65
2022/03/27 11:50:07;;;;;;;24.38;14.68;;;22.80;44.80;;;;;;5028253;28;20430;-66
2022/03/27 11:52:34;;;;;;;23.80;14.15;;;22.60;43.70;;;;;;5026776;28;20056;-65
2022/03/27 11:55:22;;;;;;;27.65;14.63;;;23.00;45.30;;;;;;5034309;28;20350;-65
2022/03/27 11:57:57;;;;;;;29.33;15.57;;;23.50;44.70;;;;;;5036310;28;20030;-65
2022/03/27 12:00:46;;;;;;;27.45;15.95;;;23.00;45.20;;;;;;5036822;28;20311;-65
2022/03/27 12:03:22;;;;;;;26.30;15.10;;;22.70;44.30;;;;;;5037454;28;20169;-65
2022/03/27 12:05:48;;;;;;;25.10;14.13;;;23.00;45.10;;;;;;5033465;28;20033;-66
2022/03/27 12:08:17;;;;;;;24.80;15.63;;;22.80;45.10;;;;;;5036792;28;20029;-64
2022/03/27 12:10:56;;;;;;;30.60;15.60;;;22.70;44.00;;;;;;5035012;28;20052;-66
2022/03/27 12:13:23;;;;;;;24.88;15.48;;;22.20;46.40;;;;;;5036726;28;20063;-65
2022/03/27 12:15:53;;;;;;;27.85;15.32;;;22.40;45.00;;;;;;5025812;28;20040;-66
2022/03/27 12:18:30;;;;;;;22.65;13.43;;;22.40;45.40;;;;;;5020628;28;20025;-66
2022/03/27 12:20:57;;;;;;;23.85;14.80;;;22.50;44.90;;;;;;5019100;28;20033;-66
2022/03/27 12:23:37;;;;;;;26.83;15.90;;;22.80;45.10;;;;;;5026618;28;20029;-66
2022/03/27 12:32:14;;;;;;;24.55;14.13;;;22.80;44.30;;;;;;5017063;28;20076;-64
2022/03/27 12:34:50;;;;;;;26.35;14.30;;;22.80;44.50;;;;;;5020079;28;20033;-65
2022/03/27 12:37:25;;;;;;;25.13;14.13;;;22.40;45.30;;;;;;5016905;28;20097;-65
2022/03/27 12:39:51;;;;;;;23.75;13.45;;;22.40;45.60;;;;;;5023657;28;20319;-65
2022/03/27 12:42:32;;;;;;;24.55;14.00;;;22.80;45.10;;;;;;5033711;28;20026;-65
2022/03/27 12:45:23;;;;;;;20.13;13.05;;;23.10;43.20;;;;;;5019966;28;20037;-65
2022/03/27 12:48:00;;;;;;;25.33;14.20;;;23.30;45.30;;;;;;5021328;28;20108;-65
2022/03/27 12:50:45;;;;;;;24.67;13.73;;;23.00;43.90;;;;;;5022714;28;20029;-64
2022/03/27 12:53:23;;;;;;;22.48;13.23;;;22.60;45.40;;;;;;5017277;28;20018;-64
2022/03/27 12:56:02;;;;;;;27.52;14.02;;;22.00;45.40;;;;;;5028348;28;20033;-64
2022/03/27 12:58:33;;;;;;;24.20;13.50;;;22.00;45.60;;;;;;5015384;28;20030;-64
2022/03/27 13:01:22;;;;;;;22.40;13.20;;;22.00;47.30;;;;;;5016712;28;20026;-68
2022/03/27 13:04:07;;;;;;;26.23;14.88;;;22.10;44.90;;;;;;5017412;28;20358;-66